sensor_id;sensor_type;location;lat;lon;timestamp;P1;durP1;ratioP1;P2;durP2;ratioP2
14040;SDS011;7095;51.388;6.196;2024-01-15T00:01:34;87.80;;;34.47;;
14040;SDS011;7095;51.388;6.196;2024-01-15T00:04:03;87.50;;;34.93;;
14040;SDS011;7095;51.388;6.196;2024-01-15T00:06:32;93.63;;;35.17;;
14040;SDS011;7095;51.388;6.196;2024-01-15T00:09:01;94.63;;;36.43;;
14040;SDS011;7095;51.388;6.196;2024-01-15T00:11:30;99.47;;;37.53;;
14040;SDS011;7095;51.388;6.196;2024-01-15T00:14:00;90.77;;;37.67;;
14040;SDS011;7095;51.388;6.196;2024-01-15T00:16:30;102.37;;;39.53;;
14040;SDS011;7095;51.388;6.196;2024-01-15T00:18:59;94.73;;;37.03;;
14040;SDS011;7095;51.388;6.196;2024-01-15T00:21:28;95.00;;;38.67;;
14040;SDS011;7095;51.388;6.196;2024-01-15T00:23:57;89.33;;;36.63;;
14040;SDS011;7095;51.388;6.196;2024-01-15T00:26:26;89.17;;;37.53;;
14040;SDS011;7095;51.388;6.196;2024-01-15T00:28:54;91.90;;;37.50;;
14040;SDS011;7095;51.388;6.196;2024-01-15T00:31:25;100.70;;;37.80;;
14040;SDS011;7095;51.388;6.196;2024-01-15T00:33:54;94.37;;;38.40;;
14040;SDS011;7095;51.388;6.196;2024-01-15T00:36:23;92.23;;;36.80;;
14040;SDS011;7095;51.388;6.196;2024-01-15T00:38:52;98.90;;;36.93;;
14040;SDS011;7095;51.388;6.196;2024-01-15T00:41:21;87.83;;;34.33;;
14040;SDS011;7095;51.388;6.196;2024-01-15T00:43:50;90.27;;;33.37;;
14040;SDS011;7095;51.388;6.196;2024-01-15T00:46:19;94.80;;;34.27;;
14040;SDS011;7095;51.388;6.196;2024-01-15T00:48:50;91.67;;;35.40;;
14040;SDS011;7095;51.388;6.196;2024-01-15T00:51:19;91.93;;;34.10;;
14040;SDS011;7095;51.388;6.196;2024-01-15T00:53:48;92.93;;;32.93;;
14040;SDS011;7095;51.388;6.196;2024-01-15T00:56:20;85.77;;;33.73;;
14040;SDS011;7095;51.388;6.196;2024-01-15T00:58:48;83.67;;;32.80;;
14040;SDS011;7095;51.388;6.196;2024-01-15T01:01:17;87.67;;;33.60;;
14040;SDS011;7095;51.388;6.196;2024-01-15T01:03:46;79.17;;;31.70;;
14040;SDS011;7095;51.388;6.196;2024-01-15T01:06:16;78.33;;;31.50;;
14040;SDS011;7095;51.388;6.196;2024-01-15T01:08:45;86.63;;;31.57;;
14040;SDS011;7095;51.388;6.196;2024-01-15T01:11:14;79.17;;;29.37;;
14040;SDS011;7095;51.388;6.196;2024-01-15T01:13:43;78.50;;;29.90;;
14040;SDS011;7095;51.388;6.196;2024-01-15T01:16:11;75.67;;;29.53;;
14040;SDS011;7095;51.388;6.196;2024-01-15T01:18:40;73.43;;;29.77;;
14040;SDS011;7095;51.388;6.196;2024-01-15T01:21:09;72.23;;;26.73;;
14040;SDS011;7095;51.388;6.196;2024-01-15T01:23:39;80.37;;;28.90;;
14040;SDS011;7095;51.388;6.196;2024-01-15T01:26:08;71.23;;;27.33;;
14040;SDS011;7095;51.388;6.196;2024-01-15T01:28:37;65.63;;;26.47;;
14040;SDS011;7095;51.388;6.196;2024-01-15T01:31:06;60.03;;;24.80;;
14040;SDS011;7095;51.388;6.196;2024-01-15T01:33:37;57.83;;;24.90;;
14040;SDS011;7095;51.388;6.196;2024-01-15T01:36:07;55.50;;;23.47;;
14040;SDS011;7095;51.388;6.196;2024-01-15T01:38:37;52.57;;;22.63;;
14040;SDS011;7095;51.388;6.196;2024-01-15T01:41:08;56.37;;;22.37;;
14040;SDS011;7095;51.388;6.196;2024-01-15T01:43:37;46.50;;;19.73;;
14040;SDS011;7095;51.388;6.196;2024-01-15T01:46:05;44.33;;;20.37;;
14040;SDS011;7095;51.388;6.196;2024-01-15T01:48:36;47.20;;;20.07;;
14040;SDS011;7095;51.388;6.196;2024-01-15T01:51:06;50.53;;;18.53;;
14040;SDS011;7095;51.388;6.196;2024-01-15T01:53:35;38.23;;;18.27;;
14040;SDS011;7095;51.388;6.196;2024-01-15T01:56:07;38.30;;;18.37;;
14040;SDS011;7095;51.388;6.196;2024-01-15T01:58:38;40.50;;;17.07;;
14040;SDS011;7095;51.388;6.196;2024-01-15T02:01:07;41.53;;;16.10;;
14040;SDS011;7095;51.388;6.196;2024-01-15T02:03:36;35.67;;;14.90;;
14040;SDS011;7095;51.388;6.196;2024-01-15T02:06:06;40.10;;;15.53;;
14040;SDS011;7095;51.388;6.196;2024-01-15T02:08:36;37.60;;;14.43;;
14040;SDS011;7095;51.388;6.196;2024-01-15T02:11:05;33.43;;;14.40;;
14040;SDS011;7095;51.388;6.196;2024-01-15T02:13:35;31.43;;;13.63;;
14040;SDS011;7095;51.388;6.196;2024-01-15T02:16:04;26.67;;;13.03;;
14040;SDS011;7095;51.388;6.196;2024-01-15T02:18:39;27.70;;;12.83;;
14040;SDS011;7095;51.388;6.196;2024-01-15T02:21:08;29.13;;;13.27;;
14040;SDS011;7095;51.388;6.196;2024-01-15T02:23:40;31.80;;;13.50;;
14040;SDS011;7095;51.388;6.196;2024-01-15T02:26:09;28.33;;;13.67;;
14040;SDS011;7095;51.388;6.196;2024-01-15T02:28:37;30.43;;;13.57;;
14040;SDS011;7095;51.388;6.196;2024-01-15T02:31:08;31.27;;;14.53;;
14040;SDS011;7095;51.388;6.196;2024-01-15T02:33:37;29.93;;;15.07;;
14040;SDS011;7095;51.388;6.196;2024-01-15T02:36:06;31.10;;;15.33;;
14040;SDS011;7095;51.388;6.196;2024-01-15T02:38:35;32.47;;;15.30;;
14040;SDS011;7095;51.388;6.196;2024-01-15T02:41:05;31.57;;;15.93;;
14040;SDS011;7095;51.388;6.196;2024-01-15T02:43:34;30.10;;;16.30;;
14040;SDS011;7095;51.388;6.196;2024-01-15T02:46:03;38.27;;;16.80;;
14040;SDS011;7095;51.388;6.196;2024-01-15T02:48:32;38.20;;;18.30;;
14040;SDS011;7095;51.388;6.196;2024-01-15T02:51:02;40.73;;;19.63;;
14040;SDS011;7095;51.388;6.196;2024-01-15T02:53:31;44.40;;;21.83;;
14040;SDS011;7095;51.388;6.196;2024-01-15T02:55:59;42.50;;;21.37;;
14040;SDS011;7095;51.388;6.196;2024-01-15T02:58:29;41.33;;;22.17;;
14040;SDS011;7095;51.388;6.196;2024-01-15T03:00:59;41.53;;;22.90;;
14040;SDS011;7095;51.388;6.196;2024-01-15T03:03:28;43.17;;;23.37;;
14040;SDS011;7095;51.388;6.196;2024-01-15T03:05:58;44.10;;;23.00;;
14040;SDS011;7095;51.388;6.196;2024-01-15T03:08:27;49.43;;;25.17;;
14040;SDS011;7095;51.388;6.196;2024-01-15T03:10:55;45.33;;;24.20;;
14040;SDS011;7095;51.388;6.196;2024-01-15T03:13:24;45.40;;;22.83;;
14040;SDS011;7095;51.388;6.196;2024-01-15T03:15:54;46.60;;;22.30;;
14040;SDS011;7095;51.388;6.196;2024-01-15T03:18:23;43.20;;;22.30;;
14040;SDS011;7095;51.388;6.196;2024-01-15T03:20:52;43.20;;;22.47;;
14040;SDS011;7095;51.388;6.196;2024-01-15T03:23:21;39.63;;;19.80;;
14040;SDS011;7095;51.388;6.196;2024-01-15T03:25:50;44.50;;;20.50;;
14040;SDS011;7095;51.388;6.196;2024-01-15T03:28:19;40.73;;;18.37;;
14040;SDS011;7095;51.388;6.196;2024-01-15T03:30:47;35.27;;;18.00;;
14040;SDS011;7095;51.388;6.196;2024-01-15T03:33:18;33.40;;;17.73;;
14040;SDS011;7095;51.388;6.196;2024-01-15T03:35:47;33.03;;;17.87;;
14040;SDS011;7095;51.388;6.196;2024-01-15T03:38:15;33.17;;;17.00;;
14040;SDS011;7095;51.388;6.196;2024-01-15T03:40:44;33.00;;;17.30;;
14040;SDS011;7095;51.388;6.196;2024-01-15T03:43:14;26.43;;;14.80;;
14040;SDS011;7095;51.388;6.196;2024-01-15T03:45:42;30.67;;;15.77;;
14040;SDS011;7095;51.388;6.196;2024-01-15T03:48:11;28.03;;;14.73;;
14040;SDS011;7095;51.388;6.196;2024-01-15T03:50:42;30.00;;;15.17;;
14040;SDS011;7095;51.388;6.196;2024-01-15T03:53:10;28.07;;;14.17;;
14040;SDS011;7095;51.388;6.196;2024-01-15T03:55:40;30.57;;;14.03;;
14040;SDS011;7095;51.388;6.196;2024-01-15T03:58:09;28.37;;;13.37;;
14040;SDS011;7095;51.388;6.196;2024-01-15T04:00:38;30.57;;;13.43;;
14040;SDS011;7095;51.388;6.196;2024-01-15T04:03:06;28.30;;;12.83;;
14040;SDS011;7095;51.388;6.196;2024-01-15T04:05:35;32.80;;;14.67;;
14040;SDS011;7095;51.388;6.196;2024-01-15T04:08:06;27.17;;;14.00;;
14040;SDS011;7095;51.388;6.196;2024-01-15T04:10:34;30.80;;;15.50;;
14040;SDS011;7095;51.388;6.196;2024-01-15T04:13:03;29.60;;;15.23;;
14040;SDS011;7095;51.388;6.196;2024-01-15T04:15:32;31.77;;;15.80;;
14040;SDS011;7095;51.388;6.196;2024-01-15T04:18:01;27.17;;;14.33;;
14040;SDS011;7095;51.388;6.196;2024-01-15T04:20:31;32.87;;;14.57;;
14040;SDS011;7095;51.388;6.196;2024-01-15T04:23:00;28.00;;;15.00;;
14040;SDS011;7095;51.388;6.196;2024-01-15T04:25:30;33.33;;;15.23;;
14040;SDS011;7095;51.388;6.196;2024-01-15T04:27:59;34.70;;;14.77;;
14040;SDS011;7095;51.388;6.196;2024-01-15T04:30:28;32.77;;;15.97;;
14040;SDS011;7095;51.388;6.196;2024-01-15T04:32:56;24.07;;;14.50;;
14040;SDS011;7095;51.388;6.196;2024-01-15T04:35:25;39.03;;;14.23;;
14040;SDS011;7095;51.388;6.196;2024-01-15T04:37:54;27.43;;;14.60;;
14040;SDS011;7095;51.388;6.196;2024-01-15T04:40:23;32.50;;;13.80;;
14040;SDS011;7095;51.388;6.196;2024-01-15T04:42:55;26.40;;;14.23;;
14040;SDS011;7095;51.388;6.196;2024-01-15T04:45:24;29.57;;;13.03;;
14040;SDS011;7095;51.388;6.196;2024-01-15T04:47:55;27.47;;;12.97;;
14040;SDS011;7095;51.388;6.196;2024-01-15T04:50:25;33.57;;;13.80;;
14040;SDS011;7095;51.388;6.196;2024-01-15T04:52:54;20.57;;;12.27;;
14040;SDS011;7095;51.388;6.196;2024-01-15T04:55:23;23.30;;;12.67;;
14040;SDS011;7095;51.388;6.196;2024-01-15T04:57:52;21.53;;;11.73;;
14040;SDS011;7095;51.388;6.196;2024-01-15T05:00:23;24.67;;;12.10;;
14040;SDS011;7095;51.388;6.196;2024-01-15T05:02:52;30.17;;;12.20;;
14040;SDS011;7095;51.388;6.196;2024-01-15T05:05:21;27.10;;;11.00;;
14040;SDS011;7095;51.388;6.196;2024-01-15T05:07:49;29.60;;;10.70;;
14040;SDS011;7095;51.388;6.196;2024-01-15T05:10:18;27.10;;;9.60;;
14040;SDS011;7095;51.388;6.196;2024-01-15T05:12:47;19.00;;;8.43;;
14040;SDS011;7095;51.388;6.196;2024-01-15T05:15:15;22.00;;;8.03;;
14040;SDS011;7095;51.388;6.196;2024-01-15T05:17:46;23.83;;;8.33;;
14040;SDS011;7095;51.388;6.196;2024-01-15T05:20:16;16.00;;;6.80;;
14040;SDS011;7095;51.388;6.196;2024-01-15T05:22:45;27.77;;;8.10;;
14040;SDS011;7095;51.388;6.196;2024-01-15T05:25:14;18.60;;;7.03;;
14040;SDS011;7095;51.388;6.196;2024-01-15T05:27:43;18.73;;;8.20;;
14040;SDS011;7095;51.388;6.196;2024-01-15T05:30:12;17.80;;;7.27;;
14040;SDS011;7095;51.388;6.196;2024-01-15T05:32:42;16.70;;;6.63;;
14040;SDS011;7095;51.388;6.196;2024-01-15T05:35:12;11.00;;;5.80;;
14040;SDS011;7095;51.388;6.196;2024-01-15T05:37:42;16.40;;;5.83;;
14040;SDS011;7095;51.388;6.196;2024-01-15T05:40:13;15.40;;;6.23;;
14040;SDS011;7095;51.388;6.196;2024-01-15T05:42:42;20.93;;;5.77;;
14040;SDS011;7095;51.388;6.196;2024-01-15T05:45:11;12.53;;;4.87;;
14040;SDS011;7095;51.388;6.196;2024-01-15T05:47:39;11.30;;;4.97;;
14040;SDS011;7095;51.388;6.196;2024-01-15T05:50:08;12.03;;;4.60;;
14040;SDS011;7095;51.388;6.196;2024-01-15T05:52:39;10.27;;;4.30;;
14040;SDS011;7095;51.388;6.196;2024-01-15T05:55:08;8.90;;;4.30;;
14040;SDS011;7095;51.388;6.196;2024-01-15T05:57:37;9.90;;;4.33;;
14040;SDS011;7095;51.388;6.196;2024-01-15T06:00:06;9.23;;;4.33;;
14040;SDS011;7095;51.388;6.196;2024-01-15T06:02:38;9.40;;;3.70;;
14040;SDS011;7095;51.388;6.196;2024-01-15T06:05:06;9.67;;;3.67;;
14040;SDS011;7095;51.388;6.196;2024-01-15T06:07:35;4.77;;;3.03;;
14040;SDS011;7095;51.388;6.196;2024-01-15T06:10:07;7.70;;;3.33;;
14040;SDS011;7095;51.388;6.196;2024-01-15T06:12:36;10.80;;;3.57;;
14040;SDS011;7095;51.388;6.196;2024-01-15T06:15:05;10.20;;;4.23;;
14040;SDS011;7095;51.388;6.196;2024-01-15T06:17:34;8.87;;;3.37;;
14040;SDS011;7095;51.388;6.196;2024-01-15T06:20:05;6.23;;;3.50;;
14040;SDS011;7095;51.388;6.196;2024-01-15T06:22:35;5.93;;;3.40;;
14040;SDS011;7095;51.388;6.196;2024-01-15T06:25:08;14.70;;;3.67;;
14040;SDS011;7095;51.388;6.196;2024-01-15T06:27:37;9.40;;;4.03;;
14040;SDS011;7095;51.388;6.196;2024-01-15T06:30:06;8.37;;;4.40;;
14040;SDS011;7095;51.388;6.196;2024-01-15T06:32:36;14.73;;;6.60;;
14040;SDS011;7095;51.388;6.196;2024-01-15T06:35:06;16.17;;;6.63;;
14040;SDS011;7095;51.388;6.196;2024-01-15T06:37:38;16.47;;;8.20;;
14040;SDS011;7095;51.388;6.196;2024-01-15T06:40:09;22.23;;;10.00;;
14040;SDS011;7095;51.388;6.196;2024-01-15T06:42:37;23.33;;;9.23;;
14040;SDS011;7095;51.388;6.196;2024-01-15T06:45:07;21.87;;;11.23;;
14040;SDS011;7095;51.388;6.196;2024-01-15T06:47:37;21.20;;;13.70;;
14040;SDS011;7095;51.388;6.196;2024-01-15T06:50:06;31.70;;;15.83;;
14040;SDS011;7095;51.388;6.196;2024-01-15T06:52:35;34.23;;;17.90;;
14040;SDS011;7095;51.388;6.196;2024-01-15T06:55:04;37.60;;;20.50;;
14040;SDS011;7095;51.388;6.196;2024-01-15T06:57:36;41.33;;;24.70;;
14040;SDS011;7095;51.388;6.196;2024-01-15T07:00:05;39.13;;;24.10;;
14040;SDS011;7095;51.388;6.196;2024-01-15T07:02:37;41.07;;;23.20;;
14040;SDS011;7095;51.388;6.196;2024-01-15T07:05:07;40.80;;;22.40;;
14040;SDS011;7095;51.388;6.196;2024-01-15T07:07:37;45.90;;;21.93;;
14040;SDS011;7095;51.388;6.196;2024-01-15T07:10:06;36.23;;;20.90;;
14040;SDS011;7095;51.388;6.196;2024-01-15T07:12:37;38.47;;;20.23;;
14040;SDS011;7095;51.388;6.196;2024-01-15T07:15:07;38.73;;;18.97;;
14040;SDS011;7095;51.388;6.196;2024-01-15T07:17:36;31.80;;;17.63;;
14040;SDS011;7095;51.388;6.196;2024-01-15T07:20:07;39.13;;;19.43;;
14040;SDS011;7095;51.388;6.196;2024-01-15T07:22:36;32.80;;;19.60;;
14040;SDS011;7095;51.388;6.196;2024-01-15T07:25:06;31.00;;;20.33;;
14040;SDS011;7095;51.388;6.196;2024-01-15T07:27:34;30.43;;;18.07;;
14040;SDS011;7095;51.388;6.196;2024-01-15T07:30:05;39.33;;;20.47;;
14040;SDS011;7095;51.388;6.196;2024-01-15T07:32:36;27.10;;;17.80;;
14040;SDS011;7095;51.388;6.196;2024-01-15T07:35:05;25.17;;;16.13;;
14040;SDS011;7095;51.388;6.196;2024-01-15T07:37:34;20.67;;;14.73;;
14040;SDS011;7095;51.388;6.196;2024-01-15T07:40:03;19.17;;;12.57;;
14040;SDS011;7095;51.388;6.196;2024-01-15T07:42:34;16.93;;;11.40;;
14040;SDS011;7095;51.388;6.196;2024-01-15T07:45:03;19.53;;;11.57;;
14040;SDS011;7095;51.388;6.196;2024-01-15T07:47:34;17.40;;;10.83;;
14040;SDS011;7095;51.388;6.196;2024-01-15T07:50:03;20.53;;;10.30;;
14040;SDS011;7095;51.388;6.196;2024-01-15T07:52:33;14.30;;;8.40;;
14040;SDS011;7095;51.388;6.196;2024-01-15T07:55:03;15.90;;;8.13;;
14040;SDS011;7095;51.388;6.196;2024-01-15T07:57:32;13.23;;;7.57;;
14040;SDS011;7095;51.388;6.196;2024-01-15T08:00:05;13.13;;;8.43;;
14040;SDS011;7095;51.388;6.196;2024-01-15T08:02:36;14.83;;;8.73;;
14040;SDS011;7095;51.388;6.196;2024-01-15T08:05:06;13.83;;;8.57;;
14040;SDS011;7095;51.388;6.196;2024-01-15T08:07:35;12.07;;;7.33;;
14040;SDS011;7095;51.388;6.196;2024-01-15T08:10:04;16.90;;;7.33;;
14040;SDS011;7095;51.388;6.196;2024-01-15T08:12:34;11.50;;;7.27;;
14040;SDS011;7095;51.388;6.196;2024-01-15T08:15:05;8.93;;;6.63;;
14040;SDS011;7095;51.388;6.196;2024-01-15T08:17:34;12.83;;;6.57;;
14040;SDS011;7095;51.388;6.196;2024-01-15T08:20:03;10.17;;;6.63;;
14040;SDS011;7095;51.388;6.196;2024-01-15T08:22:35;8.80;;;5.97;;
14040;SDS011;7095;51.388;6.196;2024-01-15T08:25:04;10.17;;;6.87;;
14040;SDS011;7095;51.388;6.196;2024-01-15T08:27:34;11.60;;;6.97;;
14040;SDS011;7095;51.388;6.196;2024-01-15T08:30:05;10.93;;;6.73;;
14040;SDS011;7095;51.388;6.196;2024-01-15T08:32:35;10.30;;;6.43;;
14040;SDS011;7095;51.388;6.196;2024-01-15T08:35:08;11.27;;;7.80;;
14040;SDS011;7095;51.388;6.196;2024-01-15T08:37:37;9.50;;;6.83;;
14040;SDS011;7095;51.388;6.196;2024-01-15T08:40:07;10.63;;;7.27;;
14040;SDS011;7095;51.388;6.196;2024-01-15T08:42:37;15.97;;;7.77;;
14040;SDS011;7095;51.388;6.196;2024-01-15T08:45:08;10.90;;;6.93;;
14040;SDS011;7095;51.388;6.196;2024-01-15T08:47:37;10.13;;;6.77;;
14040;SDS011;7095;51.388;6.196;2024-01-15T08:50:07;14.33;;;7.40;;
14040;SDS011;7095;51.388;6.196;2024-01-15T08:52:37;9.50;;;6.70;;
14040;SDS011;7095;51.388;6.196;2024-01-15T08:55:06;9.53;;;6.73;;
14040;SDS011;7095;51.388;6.196;2024-01-15T08:57:36;14.97;;;6.90;;
14040;SDS011;7095;51.388;6.196;2024-01-15T09:00:07;15.17;;;7.47;;
14040;SDS011;7095;51.388;6.196;2024-01-15T09:02:37;14.60;;;7.97;;
14040;SDS011;7095;51.388;6.196;2024-01-15T09:05:06;12.43;;;8.70;;
14040;SDS011;7095;51.388;6.196;2024-01-15T09:07:36;12.47;;;9.00;;
14040;SDS011;7095;51.388;6.196;2024-01-15T09:10:06;18.90;;;10.33;;
14040;SDS011;7095;51.388;6.196;2024-01-15T09:12:35;12.17;;;9.10;;
14040;SDS011;7095;51.388;6.196;2024-01-15T09:15:08;21.07;;;9.37;;
14040;SDS011;7095;51.388;6.196;2024-01-15T09:17:37;12.43;;;8.47;;
14040;SDS011;7095;51.388;6.196;2024-01-15T09:20:08;12.67;;;8.57;;
14040;SDS011;7095;51.388;6.196;2024-01-15T09:22:38;11.23;;;8.00;;
14040;SDS011;7095;51.388;6.196;2024-01-15T09:25:09;13.10;;;8.03;;
14040;SDS011;7095;51.388;6.196;2024-01-15T09:27:38;12.67;;;7.93;;
14040;SDS011;7095;51.388;6.196;2024-01-15T09:30:09;10.97;;;8.53;;
14040;SDS011;7095;51.388;6.196;2024-01-15T09:32:39;11.00;;;8.20;;
14040;SDS011;7095;51.388;6.196;2024-01-15T09:35:09;20.17;;;9.70;;
14040;SDS011;7095;51.388;6.196;2024-01-15T09:37:39;13.73;;;8.80;;
14040;SDS011;7095;51.388;6.196;2024-01-15T09:40:14;13.47;;;9.57;;
14040;SDS011;7095;51.388;6.196;2024-01-15T09:42:45;16.73;;;8.73;;
14040;SDS011;7095;51.388;6.196;2024-01-15T09:45:19;13.37;;;9.67;;
14040;SDS011;7095;51.388;6.196;2024-01-15T09:47:50;12.60;;;9.83;;
14040;SDS011;7095;51.388;6.196;2024-01-15T09:50:20;17.97;;;8.87;;
14040;SDS011;7095;51.388;6.196;2024-01-15T09:52:49;12.60;;;8.90;;
14040;SDS011;7095;51.388;6.196;2024-01-15T09:55:19;14.53;;;9.13;;
14040;SDS011;7095;51.388;6.196;2024-01-15T09:57:48;15.10;;;8.10;;
14040;SDS011;7095;51.388;6.196;2024-01-15T10:00:20;14.77;;;7.93;;
14040;SDS011;7095;51.388;6.196;2024-01-15T10:02:50;15.90;;;8.33;;
14040;SDS011;7095;51.388;6.196;2024-01-15T10:05:19;15.30;;;8.30;;
14040;SDS011;7095;51.388;6.196;2024-01-15T10:07:48;13.57;;;7.97;;
14040;SDS011;7095;51.388;6.196;2024-01-15T10:10:19;12.13;;;7.87;;
14040;SDS011;7095;51.388;6.196;2024-01-15T10:12:49;14.07;;;8.27;;
14040;SDS011;7095;51.388;6.196;2024-01-15T10:15:23;11.97;;;7.77;;
14040;SDS011;7095;51.388;6.196;2024-01-15T10:17:53;12.60;;;7.90;;
14040;SDS011;7095;51.388;6.196;2024-01-15T10:20:23;10.00;;;8.13;;
14040;SDS011;7095;51.388;6.196;2024-01-15T10:22:53;12.73;;;7.43;;
14040;SDS011;7095;51.388;6.196;2024-01-15T10:25:22;12.00;;;7.83;;
14040;SDS011;7095;51.388;6.196;2024-01-15T10:27:59;11.63;;;6.63;;
14040;SDS011;7095;51.388;6.196;2024-01-15T10:30:31;10.03;;;6.10;;
14040;SDS011;7095;51.388;6.196;2024-01-15T10:33:02;7.20;;;4.90;;
14040;SDS011;7095;51.388;6.196;2024-01-15T10:35:33;10.77;;;5.47;;
14040;SDS011;7095;51.388;6.196;2024-01-15T10:38:03;6.93;;;4.93;;
14040;SDS011;7095;51.388;6.196;2024-01-15T10:40:34;16.20;;;4.43;;
14040;SDS011;7095;51.388;6.196;2024-01-15T10:43:03;5.03;;;3.30;;
14040;SDS011;7095;51.388;6.196;2024-01-15T10:45:34;9.73;;;2.40;;
14040;SDS011;7095;51.388;6.196;2024-01-15T10:48:03;8.37;;;2.80;;
14040;SDS011;7095;51.388;6.196;2024-01-15T10:50:33;4.80;;;2.17;;
14040;SDS011;7095;51.388;6.196;2024-01-15T10:53:03;5.77;;;2.10;;
14040;SDS011;7095;51.388;6.196;2024-01-15T10:55:33;9.80;;;2.50;;
14040;SDS011;7095;51.388;6.196;2024-01-15T10:58:06;6.17;;;2.20;;
14040;SDS011;7095;51.388;6.196;2024-01-15T11:00:38;6.90;;;2.20;;
14040;SDS011;7095;51.388;6.196;2024-01-15T11:03:08;8.33;;;2.43;;
14040;SDS011;7095;51.388;6.196;2024-01-15T11:05:41;4.47;;;2.33;;
14040;SDS011;7095;51.388;6.196;2024-01-15T11:08:12;7.83;;;2.13;;
14040;SDS011;7095;51.388;6.196;2024-01-15T11:10:50;4.53;;;1.93;;
14040;SDS011;7095;51.388;6.196;2024-01-15T11:13:20;5.67;;;2.30;;
14040;SDS011;7095;51.388;6.196;2024-01-15T11:15:56;8.70;;;2.63;;
14040;SDS011;7095;51.388;6.196;2024-01-15T11:18:28;4.57;;;2.47;;
14040;SDS011;7095;51.388;6.196;2024-01-15T11:23:49;8.37;;;3.23;;
14040;SDS011;7095;51.388;6.196;2024-01-15T11:26:27;11.20;;;3.40;;
14040;SDS011;7095;51.388;6.196;2024-01-15T11:29:00;6.60;;;3.70;;
14040;SDS011;7095;51.388;6.196;2024-01-15T11:37:21;5.43;;;3.60;;
14040;SDS011;7095;51.388;6.196;2024-01-15T11:39:53;8.70;;;3.90;;
14040;SDS011;7095;51.388;6.196;2024-01-15T11:42:23;10.60;;;4.03;;
14040;SDS011;7095;51.388;6.196;2024-01-15T11:44:52;8.67;;;4.43;;
14040;SDS011;7095;51.388;6.196;2024-01-15T11:47:41;8.40;;;4.53;;
14040;SDS011;7095;51.388;6.196;2024-01-15T11:50:34;7.77;;;5.00;;
14040;SDS011;7095;51.388;6.196;2024-01-15T11:53:04;12.27;;;4.83;;
14040;SDS011;7095;51.388;6.196;2024-01-15T11:55:44;8.10;;;4.77;;
14040;SDS011;7095;51.388;6.196;2024-01-15T11:58:16;12.53;;;5.60;;
14040;SDS011;7095;51.388;6.196;2024-01-15T12:00:47;10.57;;;5.63;;
14040;SDS011;7095;51.388;6.196;2024-01-15T12:03:21;10.27;;;5.57;;
14040;SDS011;7095;51.388;6.196;2024-01-15T12:05:52;12.30;;;6.87;;
14040;SDS011;7095;51.388;6.196;2024-01-15T12:08:21;10.53;;;6.23;;
14040;SDS011;7095;51.388;6.196;2024-01-15T12:10:50;14.23;;;6.60;;
14040;SDS011;7095;51.388;6.196;2024-01-15T12:13:20;14.90;;;6.80;;
14040;SDS011;7095;51.388;6.196;2024-01-15T12:15:49;15.47;;;7.60;;
14040;SDS011;7095;51.388;6.196;2024-01-15T12:18:18;15.30;;;7.73;;
14040;SDS011;7095;51.388;6.196;2024-01-15T12:20:49;13.13;;;8.30;;
14040;SDS011;7095;51.388;6.196;2024-01-15T12:23:19;11.00;;;7.30;;
14040;SDS011;7095;51.388;6.196;2024-01-15T12:25:48;7.93;;;6.60;;
14040;SDS011;7095;51.388;6.196;2024-01-15T12:28:17;10.03;;;6.70;;
14040;SDS011;7095;51.388;6.196;2024-01-15T12:30:47;10.40;;;5.90;;
14040;SDS011;7095;51.388;6.196;2024-01-15T12:33:18;12.27;;;5.77;;
14040;SDS011;7095;51.388;6.196;2024-01-15T12:35:52;9.93;;;6.30;;
14040;SDS011;7095;51.388;6.196;2024-01-15T12:38:21;9.20;;;5.67;;
14040;SDS011;7095;51.388;6.196;2024-01-15T12:40:50;8.47;;;5.80;;
14040;SDS011;7095;51.388;6.196;2024-01-15T12:43:19;10.40;;;5.50;;
14040;SDS011;7095;51.388;6.196;2024-01-15T12:45:48;5.23;;;4.03;;
14040;SDS011;7095;51.388;6.196;2024-01-15T12:48:19;10.60;;;3.53;;
14040;SDS011;7095;51.388;6.196;2024-01-15T12:50:51;5.73;;;2.73;;
14040;SDS011;7095;51.388;6.196;2024-01-15T12:53:22;6.03;;;2.90;;
14040;SDS011;7095;51.388;6.196;2024-01-15T12:55:52;4.07;;;2.50;;
14040;SDS011;7095;51.388;6.196;2024-01-15T12:58:23;3.83;;;2.60;;
14040;SDS011;7095;51.388;6.196;2024-01-15T13:00:54;3.50;;;2.47;;
14040;SDS011;7095;51.388;6.196;2024-01-15T13:03:25;3.00;;;2.03;;
14040;SDS011;7095;51.388;6.196;2024-01-15T13:05:56;5.20;;;1.87;;
14040;SDS011;7095;51.388;6.196;2024-01-15T13:08:25;2.97;;;1.60;;
14040;SDS011;7095;51.388;6.196;2024-01-15T13:10:56;4.57;;;1.67;;
14040;SDS011;7095;51.388;6.196;2024-01-15T13:13:25;2.50;;;1.43;;
14040;SDS011;7095;51.388;6.196;2024-01-15T13:15:54;4.47;;;1.80;;
14040;SDS011;7095;51.388;6.196;2024-01-15T13:18:23;1.70;;;1.60;;
14040;SDS011;7095;51.388;6.196;2024-01-15T13:20:52;3.57;;;1.77;;
14040;SDS011;7095;51.388;6.196;2024-01-15T13:23:23;3.73;;;1.57;;
14040;SDS011;7095;51.388;6.196;2024-01-15T13:25:52;4.33;;;1.87;;
14040;SDS011;7095;51.388;6.196;2024-01-15T13:28:22;2.47;;;1.80;;
14040;SDS011;7095;51.388;6.196;2024-01-15T13:30:52;1.70;;;1.60;;
14040;SDS011;7095;51.388;6.196;2024-01-15T13:33:22;3.80;;;2.27;;
14040;SDS011;7095;51.388;6.196;2024-01-15T13:35:51;5.47;;;2.50;;
14040;SDS011;7095;51.388;6.196;2024-01-15T13:38:20;3.77;;;2.53;;
14040;SDS011;7095;51.388;6.196;2024-01-15T13:40:57;3.80;;;2.43;;
14040;SDS011;7095;51.388;6.196;2024-01-15T13:43:28;3.63;;;2.80;;
14040;SDS011;7095;51.388;6.196;2024-01-15T13:45:58;4.73;;;3.00;;
14040;SDS011;7095;51.388;6.196;2024-01-15T13:48:31;5.30;;;2.80;;
14040;SDS011;7095;51.388;6.196;2024-01-15T13:51:01;4.97;;;2.97;;
14040;SDS011;7095;51.388;6.196;2024-01-15T13:53:30;4.13;;;3.00;;
14040;SDS011;7095;51.388;6.196;2024-01-15T13:56:01;3.57;;;2.77;;
14040;SDS011;7095;51.388;6.196;2024-01-15T13:58:32;3.80;;;2.80;;
14040;SDS011;7095;51.388;6.196;2024-01-15T14:01:03;4.90;;;3.20;;
14040;SDS011;7095;51.388;6.196;2024-01-15T14:03:33;4.60;;;2.70;;
14040;SDS011;7095;51.388;6.196;2024-01-15T14:06:02;3.83;;;2.97;;
14040;SDS011;7095;51.388;6.196;2024-01-15T14:08:35;3.10;;;2.70;;
14040;SDS011;7095;51.388;6.196;2024-01-15T14:11:07;3.80;;;3.37;;
14040;SDS011;7095;51.388;6.196;2024-01-15T14:13:37;5.83;;;3.23;;
14040;SDS011;7095;51.388;6.196;2024-01-15T14:16:07;3.20;;;2.90;;
14040;SDS011;7095;51.388;6.196;2024-01-15T14:18:41;4.70;;;3.30;;
14040;SDS011;7095;51.388;6.196;2024-01-15T14:21:10;3.47;;;3.17;;
14040;SDS011;7095;51.388;6.196;2024-01-15T14:23:39;3.77;;;3.23;;
14040;SDS011;7095;51.388;6.196;2024-01-15T14:26:13;5.50;;;3.70;;
14040;SDS011;7095;51.388;6.196;2024-01-15T14:28:47;7.23;;;3.43;;
14040;SDS011;7095;51.388;6.196;2024-01-15T14:31:19;9.50;;;3.67;;
14040;SDS011;7095;51.388;6.196;2024-01-15T14:33:50;6.37;;;3.90;;
14040;SDS011;7095;51.388;6.196;2024-01-15T14:36:19;5.20;;;3.97;;
14040;SDS011;7095;51.388;6.196;2024-01-15T14:38:51;4.77;;;4.10;;
14040;SDS011;7095;51.388;6.196;2024-01-15T14:41:22;4.73;;;3.53;;
14040;SDS011;7095;51.388;6.196;2024-01-15T14:43:51;7.13;;;3.43;;
14040;SDS011;7095;51.388;6.196;2024-01-15T14:46:20;3.33;;;3.03;;
14040;SDS011;7095;51.388;6.196;2024-01-15T14:48:49;2.90;;;2.60;;
14040;SDS011;7095;51.388;6.196;2024-01-15T14:51:17;4.37;;;3.17;;
14040;SDS011;7095;51.388;6.196;2024-01-15T14:53:46;2.77;;;2.53;;
14040;SDS011;7095;51.388;6.196;2024-01-15T14:56:15;4.63;;;2.97;;
14040;SDS011;7095;51.388;6.196;2024-01-15T14:58:45;4.63;;;2.90;;
14040;SDS011;7095;51.388;6.196;2024-01-15T15:01:14;3.07;;;2.80;;
14040;SDS011;7095;51.388;6.196;2024-01-15T15:03:44;5.30;;;2.93;;
14040;SDS011;7095;51.388;6.196;2024-01-15T15:06:14;3.40;;;2.63;;
14040;SDS011;7095;51.388;6.196;2024-01-15T15:08:43;6.90;;;3.10;;
14040;SDS011;7095;51.388;6.196;2024-01-15T15:11:12;3.43;;;2.50;;